Skip to main content.
 TIME   TEMPERATURE   WINDSPEED   DIRECTION   HUMIDITY   BAROMETER   RAINFALL 
11:40 16.5°C (61.7°F) 11.1 kmh (6.9 mph) NNW 64% 1021.0hPa (30.15 inHg) 0.0mm (0.00 in.)
10:40 15.9°C (60.6 °F) 0.0 kmh (0.0 mph) NW 64% 1022.0hPa (30.18 inHg) 0.0mm (0.00 in.)
9:38 15.5°C (59.9 °F) 0.0 kmh (0.0 mph) NNW 66% 1021.3hPa (30.16 inHg) 0.0mm (0.00 in.)
6:54 10.2°C (50.4 °F) 0.0 kmh (0.0 mph) NNW 64% 1021.0hPa (30.15 inHg) 0.0mm (0.00 in.)
5:54 10.2°C (50.4 °F) 0.0 kmh (0.0 mph) NNW 64% 1021.0hPa (30.15 inHg) 0.0mm (0.00 in.)
4:54 10.3°C (50.5 °F) 0.0 kmh (0.0 mph) W 63% 1021.0hPa (30.15 inHg) 0.0mm (0.00 in.)
3:54 10.4°C (50.7 °F) 0.0 kmh (0.0 mph) NNW 62% 1021.0hPa (30.15 inHg) 0.0mm (0.00 in.)
2:54 10.4°C (50.7 °F) 0.0 kmh (0.0 mph) NNW 61% 1021.0hPa (30.15 inHg) 0.0mm (0.00 in.)
1:54 10.4°C (50.7 °F) 0.0 kmh (0.0 mph) NW 61% 1021.0hPa (30.15 inHg) 0.0mm (0.00 in.)
12:54 10.4°C (50.7 °F) 0.0 kmh (0.0 mph) NNW 60% 1021.0hPa (30.15 inHg) 0.0mm (0.00 in.)
11:54 10.5°C (50.9 °F) 0.0 kmh (0.0 mph) NW 60% 1021.0hPa (30.15 inHg) 0.0mm (0.00 in.)
10:54 10.7°C (51.3 °F) 0.0 kmh (0.0 mph) NNW 59% 1021.0hPa (30.15 inHg) 0.0mm (0.00 in.)
9:54 10.9°C (51.6 °F) 0.0 kmh (0.0 mph) NNW 58% 1021.0hPa (30.15 inHg) 0.0mm (0.00 in.)
8:54 10.8°C (51.4 °F) 0.0 kmh (0.0 mph) NW 57% 1021.0hPa (30.15 inHg) 0.0mm (0.00 in.)
7:54 11.0°C (51.8 °F) 0.0 kmh (0.0 mph) NNW 56% 1021.0hPa (30.15 inHg) 0.0mm (0.00 in.)
6:54 11.2°C (52.2 °F) 0.0 kmh (0.0 mph) NNW 54% 1021.0hPa (30.15 inHg) 0.0mm (0.00 in.)
5:54 13.6°C (56.5 °F) 0.0 kmh (0.0 mph) NNW 52% 1020.0hPa (30.12 inHg) 0.0mm (0.00 in.)
4:54 13.8°C (56.8 °F) 11.1 kmh (6.9 mph) N 51% 1020.0hPa (30.12 inHg) 0.0mm (0.00 in.)
3:54 14.0°C (57.2 °F) 16.7 kmh (10.4 mph) NNE 50% 1020.0hPa (30.12 inHg) 0.0mm (0.00 in.)
2:54 14.3°C (57.7 °F) 0.0 kmh (0.0 mph) N 49% 1020.0hPa (30.12 inHg) 0.0mm (0.00 in.)
1:54 14.4°C (57.9 °F) 9.3 kmh (5.8 mph) NNE 49% 1020.0hPa (30.12 inHg) 0.0mm (0.00 in.)
12:54 14.3°C (57.7 °F) 20.4 kmh (12.7 mph) N 50% 1020.0hPa (30.12 inHg) 0.0mm (0.00 in.)
11:54 14.2°C (57.6 °F) 22.2 kmh (13.8 mph) N 51% 1021.0hPa (30.15 inHg) 0.0mm (0.00 in.)
10:48 13.8°C (56.8 °F) 29.6 kmh (18.4 mph) N 52% 1021.0hPa (30.15 inHg) 0.0mm (0.00 in.)